sensor_id;sensor_type;location;lat;lon;timestamp;temperature;humidity
9824;DHT22;4951;50.778;7.196;2022-07-29T00:01:14;18.50;1.00
9824;DHT22;4951;50.778;7.196;2022-07-29T00:03:41;18.50;1.00
9824;DHT22;4951;50.778;7.196;2022-07-29T00:06:09;18.50;1.00
9824;DHT22;4951;50.778;7.196;2022-07-29T00:08:36;18.50;1.00
9824;DHT22;4951;50.778;7.196;2022-07-29T00:11:03;18.50;1.00
9824;DHT22;4951;50.778;7.196;2022-07-29T00:13:30;18.50;1.00
9824;DHT22;4951;50.778;7.196;2022-07-29T00:15:57;18.40;1.00
9824;DHT22;4951;50.778;7.196;2022-07-29T00:18:26;18.50;1.00
9824;DHT22;4951;50.778;7.196;2022-07-29T00:20:53;18.40;1.00
9824;DHT22;4951;50.778;7.196;2022-07-29T00:23:20;18.40;1.00
9824;DHT22;4951;50.778;7.196;2022-07-29T00:25:47;18.40;1.00
9824;DHT22;4951;50.778;7.196;2022-07-29T00:28:14;18.40;1.00
9824;DHT22;4951;50.778;7.196;2022-07-29T00:30:41;18.40;1.00
9824;DHT22;4951;50.778;7.196;2022-07-29T00:33:09;18.40;1.00
9824;DHT22;4951;50.778;7.196;2022-07-29T00:35:37;18.40;1.00
9824;DHT22;4951;50.778;7.196;2022-07-29T00:38:09;18.30;1.00
9824;DHT22;4951;50.778;7.196;2022-07-29T00:40:36;18.30;1.00
9824;DHT22;4951;50.778;7.196;2022-07-29T00:43:03;18.30;1.00
9824;DHT22;4951;50.778;7.196;2022-07-29T00:45:30;18.30;1.00
9824;DHT22;4951;50.778;7.196;2022-07-29T00:47:57;18.20;1.00
9824;DHT22;4951;50.778;7.196;2022-07-29T00:50:25;18.20;1.00
9824;DHT22;4951;50.778;7.196;2022-07-29T00:52:54;18.20;1.00
9824;DHT22;4951;50.778;7.196;2022-07-29T00:55:21;18.20;1.00
9824;DHT22;4951;50.778;7.196;2022-07-29T00:57:49;18.20;1.00
9824;DHT22;4951;50.778;7.196;2022-07-29T01:00:18;18.20;1.00
9824;DHT22;4951;50.778;7.196;2022-07-29T01:02:46;18.20;1.00
9824;DHT22;4951;50.778;7.196;2022-07-29T01:05:17;18.20;1.00
9824;DHT22;4951;50.778;7.196;2022-07-29T01:07:46;18.20;1.00
9824;DHT22;4951;50.778;7.196;2022-07-29T01:10:16;18.10;1.00
9824;DHT22;4951;50.778;7.196;2022-07-29T01:12:47;18.10;1.00
9824;DHT22;4951;50.778;7.196;2022-07-29T01:15:16;18.10;1.00
9824;DHT22;4951;50.778;7.196;2022-07-29T01:17:45;18.00;1.00
9824;DHT22;4951;50.778;7.196;2022-07-29T01:20:22;18.00;1.00
9824;DHT22;4951;50.778;7.196;2022-07-29T01:29:18;17.80;1.00
9824;DHT22;4951;50.778;7.196;2022-07-29T01:31:51;17.70;1.00
9824;DHT22;4951;50.778;7.196;2022-07-29T01:34:23;17.70;1.00
9824;DHT22;4951;50.778;7.196;2022-07-29T01:36:57;17.70;1.00
9824;DHT22;4951;50.778;7.196;2022-07-29T01:39:31;17.70;1.00
9824;DHT22;4951;50.778;7.196;2022-07-29T01:42:04;17.60;1.00
9824;DHT22;4951;50.778;7.196;2022-07-29T01:44:38;17.60;1.00
9824;DHT22;4951;50.778;7.196;2022-07-29T01:47:11;17.50;1.00
9824;DHT22;4951;50.778;7.196;2022-07-29T01:49:54;17.50;1.00
9824;DHT22;4951;50.778;7.196;2022-07-29T01:52:28;17.50;1.00
9824;DHT22;4951;50.778;7.196;2022-07-29T01:54:59;17.50;1.00
9824;DHT22;4951;50.778;7.196;2022-07-29T01:57:29;17.50;1.00
9824;DHT22;4951;50.778;7.196;2022-07-29T01:59:59;17.40;1.00
9824;DHT22;4951;50.778;7.196;2022-07-29T02:02:39;17.40;1.00
9824;DHT22;4951;50.778;7.196;2022-07-29T02:05:10;17.40;1.00
9824;DHT22;4951;50.778;7.196;2022-07-29T02:07:37;17.30;1.00
9824;DHT22;4951;50.778;7.196;2022-07-29T02:10:07;17.30;1.00
9824;DHT22;4951;50.778;7.196;2022-07-29T02:12:36;17.30;1.00
9824;DHT22;4951;50.778;7.196;2022-07-29T02:15:07;17.30;1.00
9824;DHT22;4951;50.778;7.196;2022-07-29T02:17:42;17.30;1.00
9824;DHT22;4951;50.778;7.196;2022-07-29T02:20:11;17.20;1.00
9824;DHT22;4951;50.778;7.196;2022-07-29T02:22:39;17.10;1.00
9824;DHT22;4951;50.778;7.196;2022-07-29T02:25:08;17.10;1.00
9824;DHT22;4951;50.778;7.196;2022-07-29T02:27:37;17.10;1.00
9824;DHT22;4951;50.778;7.196;2022-07-29T02:30:08;17.00;1.00
9824;DHT22;4951;50.778;7.196;2022-07-29T02:32:37;17.00;1.00
9824;DHT22;4951;50.778;7.196;2022-07-29T02:35:07;16.90;1.00
9824;DHT22;4951;50.778;7.196;2022-07-29T02:37:36;16.80;1.00
9824;DHT22;4951;50.778;7.196;2022-07-29T02:40:04;16.80;1.00
9824;DHT22;4951;50.778;7.196;2022-07-29T02:42:33;16.70;1.00
9824;DHT22;4951;50.778;7.196;2022-07-29T02:45:02;16.70;1.00
9824;DHT22;4951;50.778;7.196;2022-07-29T02:47:36;16.70;1.00
9824;DHT22;4951;50.778;7.196;2022-07-29T02:50:06;16.60;1.00
9824;DHT22;4951;50.778;7.196;2022-07-29T02:52:39;16.60;1.00
9824;DHT22;4951;50.778;7.196;2022-07-29T02:55:13;16.60;1.00
9824;DHT22;4951;50.778;7.196;2022-07-29T02:57:43;16.60;1.00
9824;DHT22;4951;50.778;7.196;2022-07-29T03:00:12;16.60;1.00
9824;DHT22;4951;50.778;7.196;2022-07-29T03:02:44;16.70;1.00
9824;DHT22;4951;50.778;7.196;2022-07-29T03:05:15;16.70;1.00
9824;DHT22;4951;50.778;7.196;2022-07-29T03:07:46;16.70;1.00
9824;DHT22;4951;50.778;7.196;2022-07-29T03:10:13;16.70;1.00
9824;DHT22;4951;50.778;7.196;2022-07-29T03:12:41;16.70;1.00
9824;DHT22;4951;50.778;7.196;2022-07-29T03:15:09;16.70;1.00
9824;DHT22;4951;50.778;7.196;2022-07-29T03:17:37;16.80;1.00
9824;DHT22;4951;50.778;7.196;2022-07-29T03:20:09;16.80;1.00
9824;DHT22;4951;50.778;7.196;2022-07-29T03:22:39;16.80;1.00
9824;DHT22;4951;50.778;7.196;2022-07-29T03:25:09;16.80;1.00
9824;DHT22;4951;50.778;7.196;2022-07-29T03:27:37;16.80;1.00
9824;DHT22;4951;50.778;7.196;2022-07-29T03:30:05;16.80;1.00
9824;DHT22;4951;50.778;7.196;2022-07-29T03:32:32;16.80;1.00
9824;DHT22;4951;50.778;7.196;2022-07-29T03:34:59;16.90;1.00
9824;DHT22;4951;50.778;7.196;2022-07-29T03:37:28;16.90;1.00
9824;DHT22;4951;50.778;7.196;2022-07-29T03:39:57;16.80;1.00
9824;DHT22;4951;50.778;7.196;2022-07-29T03:42:27;16.80;1.00
9824;DHT22;4951;50.778;7.196;2022-07-29T03:44:56;16.80;1.00
9824;DHT22;4951;50.778;7.196;2022-07-29T03:47:26;16.80;1.00
9824;DHT22;4951;50.778;7.196;2022-07-29T03:49:59;16.80;1.00
9824;DHT22;4951;50.778;7.196;2022-07-29T03:52:27;16.80;1.00
9824;DHT22;4951;50.778;7.196;2022-07-29T03:54:55;16.80;1.00
9824;DHT22;4951;50.778;7.196;2022-07-29T03:57:25;16.80;1.00
9824;DHT22;4951;50.778;7.196;2022-07-29T03:59:54;16.80;1.00
9824;DHT22;4951;50.778;7.196;2022-07-29T04:02:22;16.80;1.00
9824;DHT22;4951;50.778;7.196;2022-07-29T04:04:49;16.80;1.00
9824;DHT22;4951;50.778;7.196;2022-07-29T04:07:17;16.80;1.00
9824;DHT22;4951;50.778;7.196;2022-07-29T04:09:45;16.80;1.00
9824;DHT22;4951;50.778;7.196;2022-07-29T04:12:12;16.70;1.00
9824;DHT22;4951;50.778;7.196;2022-07-29T04:14:39;16.70;1.00
9824;DHT22;4951;50.778;7.196;2022-07-29T04:17:06;16.70;1.00
9824;DHT22;4951;50.778;7.196;2022-07-29T04:19:33;16.70;1.00
9824;DHT22;4951;50.778;7.196;2022-07-29T04:22:00;16.60;1.00
9824;DHT22;4951;50.778;7.196;2022-07-29T04:24:28;16.70;1.00
9824;DHT22;4951;50.778;7.196;2022-07-29T04:26:56;16.70;1.00
9824;DHT22;4951;50.778;7.196;2022-07-29T04:29:23;16.70;1.00
9824;DHT22;4951;50.778;7.196;2022-07-29T04:31:50;16.70;1.00
9824;DHT22;4951;50.778;7.196;2022-07-29T04:34:17;16.70;1.00
9824;DHT22;4951;50.778;7.196;2022-07-29T04:36:44;16.70;1.00
9824;DHT22;4951;50.778;7.196;2022-07-29T04:39:11;16.80;1.00
9824;DHT22;4951;50.778;7.196;2022-07-29T04:41:38;16.80;1.00
9824;DHT22;4951;50.778;7.196;2022-07-29T04:44:07;16.90;1.00
9824;DHT22;4951;50.778;7.196;2022-07-29T04:46:35;17.00;1.00
9824;DHT22;4951;50.778;7.196;2022-07-29T04:49:02;17.00;1.00
9824;DHT22;4951;50.778;7.196;2022-07-29T04:51:29;17.00;1.00
9824;DHT22;4951;50.778;7.196;2022-07-29T04:53:56;17.10;1.00
9824;DHT22;4951;50.778;7.196;2022-07-29T04:56:23;17.10;1.00
9824;DHT22;4951;50.778;7.196;2022-07-29T04:58:51;17.10;1.00
9824;DHT22;4951;50.778;7.196;2022-07-29T05:01:20;17.20;1.00
9824;DHT22;4951;50.778;7.196;2022-07-29T05:03:47;17.10;1.00
9824;DHT22;4951;50.778;7.196;2022-07-29T05:06:14;17.20;1.00
9824;DHT22;4951;50.778;7.196;2022-07-29T05:08:41;17.20;1.00
9824;DHT22;4951;50.778;7.196;2022-07-29T05:11:08;17.20;1.00
9824;DHT22;4951;50.778;7.196;2022-07-29T05:13:35;17.30;1.00
9824;DHT22;4951;50.778;7.196;2022-07-29T05:16:03;17.30;1.00
9824;DHT22;4951;50.778;7.196;2022-07-29T05:18:31;17.40;1.00
9824;DHT22;4951;50.778;7.196;2022-07-29T05:20:59;17.60;1.00
9824;DHT22;4951;50.778;7.196;2022-07-29T05:23:26;17.70;1.00
9824;DHT22;4951;50.778;7.196;2022-07-29T05:25:53;17.80;1.00
9824;DHT22;4951;50.778;7.196;2022-07-29T05:28:20;17.90;1.00
9824;DHT22;4951;50.778;7.196;2022-07-29T05:30:47;18.00;1.00
9824;DHT22;4951;50.778;7.196;2022-07-29T05:33:15;18.20;1.00
9824;DHT22;4951;50.778;7.196;2022-07-29T05:35:43;18.30;1.00
9824;DHT22;4951;50.778;7.196;2022-07-29T05:38:10;18.40;1.00
9824;DHT22;4951;50.778;7.196;2022-07-29T05:40:37;18.50;1.00
9824;DHT22;4951;50.778;7.196;2022-07-29T05:43:05;18.60;1.00
9824;DHT22;4951;50.778;7.196;2022-07-29T05:45:32;18.70;1.00
9824;DHT22;4951;50.778;7.196;2022-07-29T05:47:59;18.70;1.00
9824;DHT22;4951;50.778;7.196;2022-07-29T05:50:26;18.80;1.00
9824;DHT22;4951;50.778;7.196;2022-07-29T05:52:54;18.90;1.00
9824;DHT22;4951;50.778;7.196;2022-07-29T05:55:22;19.00;1.00
9824;DHT22;4951;50.778;7.196;2022-07-29T05:57:49;19.10;1.00
9824;DHT22;4951;50.778;7.196;2022-07-29T06:00:16;19.30;1.00
9824;DHT22;4951;50.778;7.196;2022-07-29T06:02:43;19.40;1.00
9824;DHT22;4951;50.778;7.196;2022-07-29T06:05:11;19.50;1.00
9824;DHT22;4951;50.778;7.196;2022-07-29T06:07:38;19.50;1.00
9824;DHT22;4951;50.778;7.196;2022-07-29T06:10:08;19.50;1.00
9824;DHT22;4951;50.778;7.196;2022-07-29T06:12:36;19.40;1.00
9824;DHT22;4951;50.778;7.196;2022-07-29T06:15:04;19.40;1.00
9824;DHT22;4951;50.778;7.196;2022-07-29T06:17:31;19.40;1.00
9824;DHT22;4951;50.778;7.196;2022-07-29T06:19:59;19.40;1.00
9824;DHT22;4951;50.778;7.196;2022-07-29T06:22:26;19.40;1.00
9824;DHT22;4951;50.778;7.196;2022-07-29T06:24:53;19.50;1.00
9824;DHT22;4951;50.778;7.196;2022-07-29T06:27:24;19.50;1.00
9824;DHT22;4951;50.778;7.196;2022-07-29T06:29:51;19.50;1.00
9824;DHT22;4951;50.778;7.196;2022-07-29T06:32:18;19.60;1.00
9824;DHT22;4951;50.778;7.196;2022-07-29T06:34:45;19.60;1.00
9824;DHT22;4951;50.778;7.196;2022-07-29T06:37:12;19.60;1.00
9824;DHT22;4951;50.778;7.196;2022-07-29T06:39:40;19.70;1.00
9824;DHT22;4951;50.778;7.196;2022-07-29T06:42:07;19.70;1.00
9824;DHT22;4951;50.778;7.196;2022-07-29T06:44:36;19.80;1.00
9824;DHT22;4951;50.778;7.196;2022-07-29T06:47:04;19.80;1.00
9824;DHT22;4951;50.778;7.196;2022-07-29T06:49:31;20.00;1.00
9824;DHT22;4951;50.778;7.196;2022-07-29T06:51:59;20.10;1.00
9824;DHT22;4951;50.778;7.196;2022-07-29T06:54:26;20.20;1.00
9824;DHT22;4951;50.778;7.196;2022-07-29T06:56:53;20.30;1.00
9824;DHT22;4951;50.778;7.196;2022-07-29T06:59:20;20.40;1.00
9824;DHT22;4951;50.778;7.196;2022-07-29T07:01:49;20.50;1.00
9824;DHT22;4951;50.778;7.196;2022-07-29T07:04:16;20.50;1.00
9824;DHT22;4951;50.778;7.196;2022-07-29T07:06:43;20.60;1.00
9824;DHT22;4951;50.778;7.196;2022-07-29T07:09:10;20.70;1.00
9824;DHT22;4951;50.778;7.196;2022-07-29T07:11:37;20.80;1.00
9824;DHT22;4951;50.778;7.196;2022-07-29T07:14:04;20.90;99.90
9824;DHT22;4951;50.778;7.196;2022-07-29T07:16:31;21.10;99.90
9824;DHT22;4951;50.778;7.196;2022-07-29T07:19:00;21.20;99.90
9824;DHT22;4951;50.778;7.196;2022-07-29T07:21:28;21.40;99.90
9824;DHT22;4951;50.778;7.196;2022-07-29T07:23:55;21.40;99.90
9824;DHT22;4951;50.778;7.196;2022-07-29T07:26:22;21.50;99.90
9824;DHT22;4951;50.778;7.196;2022-07-29T07:28:53;21.70;99.90
9824;DHT22;4951;50.778;7.196;2022-07-29T07:31:22;21.80;99.90
9824;DHT22;4951;50.778;7.196;2022-07-29T07:33:49;21.90;99.90
9824;DHT22;4951;50.778;7.196;2022-07-29T07:36:19;22.00;99.90
9824;DHT22;4951;50.778;7.196;2022-07-29T07:39:04;22.10;99.90
9824;DHT22;4951;50.778;7.196;2022-07-29T07:41:32;22.10;99.90
9824;DHT22;4951;50.778;7.196;2022-07-29T07:43:59;22.20;99.90
9824;DHT22;4951;50.778;7.196;2022-07-29T07:46:26;22.20;99.90
9824;DHT22;4951;50.778;7.196;2022-07-29T07:48:54;22.20;99.90
9824;DHT22;4951;50.778;7.196;2022-07-29T07:51:22;22.20;99.90
9824;DHT22;4951;50.778;7.196;2022-07-29T07:53:49;22.20;99.90
9824;DHT22;4951;50.778;7.196;2022-07-29T07:56:17;22.20;99.90
9824;DHT22;4951;50.778;7.196;2022-07-29T07:58:43;22.20;99.90
9824;DHT22;4951;50.778;7.196;2022-07-29T08:01:11;22.20;99.90
9824;DHT22;4951;50.778;7.196;2022-07-29T08:03:38;22.20;99.90
9824;DHT22;4951;50.778;7.196;2022-07-29T08:06:05;22.20;99.90
9824;DHT22;4951;50.778;7.196;2022-07-29T08:08:34;22.30;99.90
9824;DHT22;4951;50.778;7.196;2022-07-29T08:11:01;22.30;99.90
9824;DHT22;4951;50.778;7.196;2022-07-29T08:13:29;22.40;99.90
9824;DHT22;4951;50.778;7.196;2022-07-29T08:15:58;22.60;99.90
9824;DHT22;4951;50.778;7.196;2022-07-29T08:18:29;22.70;99.90
9824;DHT22;4951;50.778;7.196;2022-07-29T08:20:59;22.80;99.90
9824;DHT22;4951;50.778;7.196;2022-07-29T08:23:26;22.90;99.90
9824;DHT22;4951;50.778;7.196;2022-07-29T08:26:01;23.10;99.90
9824;DHT22;4951;50.778;7.196;2022-07-29T08:28:29;23.30;99.90
9824;DHT22;4951;50.778;7.196;2022-07-29T08:30:56;23.40;99.90
9824;DHT22;4951;50.778;7.196;2022-07-29T08:33:23;23.60;99.90
9824;DHT22;4951;50.778;7.196;2022-07-29T08:35:50;23.70;99.90
9824;DHT22;4951;50.778;7.196;2022-07-29T08:38:17;23.80;99.90
9824;DHT22;4951;50.778;7.196;2022-07-29T08:40:45;23.90;99.90
9824;DHT22;4951;50.778;7.196;2022-07-29T08:43:14;24.00;99.90
9824;DHT22;4951;50.778;7.196;2022-07-29T08:45:45;24.10;99.90
9824;DHT22;4951;50.778;7.196;2022-07-29T08:48:13;24.20;99.90
9824;DHT22;4951;50.778;7.196;2022-07-29T08:50:41;24.20;99.90
9824;DHT22;4951;50.778;7.196;2022-07-29T08:53:11;24.20;99.90
9824;DHT22;4951;50.778;7.196;2022-07-29T08:55:40;24.20;99.90
9824;DHT22;4951;50.778;7.196;2022-07-29T08:58:09;24.20;99.90
9824;DHT22;4951;50.778;7.196;2022-07-29T09:00:42;24.20;99.90
9824;DHT22;4951;50.778;7.196;2022-07-29T09:03:11;24.20;99.90
9824;DHT22;4951;50.778;7.196;2022-07-29T09:05:41;24.30;99.90
9824;DHT22;4951;50.778;7.196;2022-07-29T09:08:09;24.30;99.90
9824;DHT22;4951;50.778;7.196;2022-07-29T09:10:36;24.30;99.90
9824;DHT22;4951;50.778;7.196;2022-07-29T09:13:03;24.30;99.90
9824;DHT22;4951;50.778;7.196;2022-07-29T09:15:30;24.40;99.90
9824;DHT22;4951;50.778;7.196;2022-07-29T09:17:59;24.40;99.90
9824;DHT22;4951;50.778;7.196;2022-07-29T09:20:27;24.40;99.90
9824;DHT22;4951;50.778;7.196;2022-07-29T09:23:14;24.40;99.90
9824;DHT22;4951;50.778;7.196;2022-07-29T09:25:42;24.40;99.90
9824;DHT22;4951;50.778;7.196;2022-07-29T09:28:09;24.40;99.90
9824;DHT22;4951;50.778;7.196;2022-07-29T09:30:50;24.30;99.90
9824;DHT22;4951;50.778;7.196;2022-07-29T09:33:20;24.30;99.90
9824;DHT22;4951;50.778;7.196;2022-07-29T09:36:01;24.30;99.90
9824;DHT22;4951;50.778;7.196;2022-07-29T09:38:29;24.30;99.90
9824;DHT22;4951;50.778;7.196;2022-07-29T09:40:57;24.40;99.90
9824;DHT22;4951;50.778;7.196;2022-07-29T09:43:24;24.40;99.90
9824;DHT22;4951;50.778;7.196;2022-07-29T09:45:52;24.50;99.90
9824;DHT22;4951;50.778;7.196;2022-07-29T09:48:22;24.50;99.90
9824;DHT22;4951;50.778;7.196;2022-07-29T09:50:49;24.60;99.90
9824;DHT22;4951;50.778;7.196;2022-07-29T09:53:33;24.70;99.90
9824;DHT22;4951;50.778;7.196;2022-07-29T09:56:01;24.70;99.90
9824;DHT22;4951;50.778;7.196;2022-07-29T09:58:28;24.80;99.90
9824;DHT22;4951;50.778;7.196;2022-07-29T10:00:56;24.80;99.90
9824;DHT22;4951;50.778;7.196;2022-07-29T10:03:25;25.00;99.90
9824;DHT22;4951;50.778;7.196;2022-07-29T10:06:06;25.10;99.90
9824;DHT22;4951;50.778;7.196;2022-07-29T10:08:33;25.20;99.90
9824;DHT22;4951;50.778;7.196;2022-07-29T10:11:09;25.30;99.90
9824;DHT22;4951;50.778;7.196;2022-07-29T10:13:36;25.40;99.90
9824;DHT22;4951;50.778;7.196;2022-07-29T10:16:04;25.60;99.90
9824;DHT22;4951;50.778;7.196;2022-07-29T10:18:34;25.70;99.90
9824;DHT22;4951;50.778;7.196;2022-07-29T10:21:02;25.90;99.90
9824;DHT22;4951;50.778;7.196;2022-07-29T10:23:30;26.10;99.90
9824;DHT22;4951;50.778;7.196;2022-07-29T10:25:57;26.20;99.90
9824;DHT22;4951;50.778;7.196;2022-07-29T10:28:24;26.30;99.90
9824;DHT22;4951;50.778;7.196;2022-07-29T10:30:53;26.40;99.90
9824;DHT22;4951;50.778;7.196;2022-07-29T10:33:37;26.50;99.90
9824;DHT22;4951;50.778;7.196;2022-07-29T10:36:27;26.50;99.90
9824;DHT22;4951;50.778;7.196;2022-07-29T10:39:05;26.40;99.90
9824;DHT22;4951;50.778;7.196;2022-07-29T10:41:47;26.30;99.90
9824;DHT22;4951;50.778;7.196;2022-07-29T10:44:21;26.40;99.90
9824;DHT22;4951;50.778;7.196;2022-07-29T10:46:50;26.50;99.90
9824;DHT22;4951;50.778;7.196;2022-07-29T10:49:20;26.50;99.90
9824;DHT22;4951;50.778;7.196;2022-07-29T10:51:55;26.50;99.90
9824;DHT22;4951;50.778;7.196;2022-07-29T10:54:44;26.60;99.90
9824;DHT22;4951;50.778;7.196;2022-07-29T10:57:17;26.80;99.90
9824;DHT22;4951;50.778;7.196;2022-07-29T10:59:46;26.80;99.90
9824;DHT22;4951;50.778;7.196;2022-07-29T11:02:43;26.90;99.90
9824;DHT22;4951;50.778;7.196;2022-07-29T11:05:14;27.00;99.90
9824;DHT22;4951;50.778;7.196;2022-07-29T11:08:17;27.10;99.90
9824;DHT22;4951;50.778;7.196;2022-07-29T11:10:47;27.00;99.90
9824;DHT22;4951;50.778;7.196;2022-07-29T11:13:49;27.00;99.90
9824;DHT22;4951;50.778;7.196;2022-07-29T11:16:18;26.90;99.90
9824;DHT22;4951;50.778;7.196;2022-07-29T11:19:18;26.90;99.90
9824;DHT22;4951;50.778;7.196;2022-07-29T11:21:47;26.80;99.90
9824;DHT22;4951;50.778;7.196;2022-07-29T11:24:17;26.80;99.90
9824;DHT22;4951;50.778;7.196;2022-07-29T11:27:12;26.70;99.90
9824;DHT22;4951;50.778;7.196;2022-07-29T11:29:49;26.60;99.90
9824;DHT22;4951;50.778;7.196;2022-07-29T11:32:17;26.60;99.90
9824;DHT22;4951;50.778;7.196;2022-07-29T11:34:46;26.60;99.90
9824;DHT22;4951;50.778;7.196;2022-07-29T11:37:20;26.60;99.90
9824;DHT22;4951;50.778;7.196;2022-07-29T11:40:18;26.60;99.90
9824;DHT22;4951;50.778;7.196;2022-07-29T11:42:46;26.60;99.90
9824;DHT22;4951;50.778;7.196;2022-07-29T11:45:16;26.70;99.90
9824;DHT22;4951;50.778;7.196;2022-07-29T11:47:49;26.80;99.90
9824;DHT22;4951;50.778;7.196;2022-07-29T11:50:25;26.80;99.90
9824;DHT22;4951;50.778;7.196;2022-07-29T11:52:54;26.90;99.90
9824;DHT22;4951;50.778;7.196;2022-07-29T11:55:22;26.90;99.90
9824;DHT22;4951;50.778;7.196;2022-07-29T11:57:53;26.90;99.90
9824;DHT22;4951;50.778;7.196;2022-07-29T12:00:26;27.00;99.90
9824;DHT22;4951;50.778;7.196;2022-07-29T12:02:54;27.00;99.90
9824;DHT22;4951;50.778;7.196;2022-07-29T12:05:31;27.00;99.90
9824;DHT22;4951;50.778;7.196;2022-07-29T12:08:07;27.10;99.90
9824;DHT22;4951;50.778;7.196;2022-07-29T12:10:35;27.30;99.90
9824;DHT22;4951;50.778;7.196;2022-07-29T12:13:02;27.30;99.90
9824;DHT22;4951;50.778;7.196;2022-07-29T12:15:29;27.40;99.90
9824;DHT22;4951;50.778;7.196;2022-07-29T12:17:57;27.40;99.90
9824;DHT22;4951;50.778;7.196;2022-07-29T12:20:26;27.50;99.90
9824;DHT22;4951;50.778;7.196;2022-07-29T12:22:54;27.60;99.90
9824;DHT22;4951;50.778;7.196;2022-07-29T12:25:23;27.70;99.90
9824;DHT22;4951;50.778;7.196;2022-07-29T12:28:00;27.80;99.90
9824;DHT22;4951;50.778;7.196;2022-07-29T12:30:40;27.80;99.90
9824;DHT22;4951;50.778;7.196;2022-07-29T12:33:13;27.80;99.90
9824;DHT22;4951;50.778;7.196;2022-07-29T12:35:46;27.80;99.90
9824;DHT22;4951;50.778;7.196;2022-07-29T12:38:14;27.80;99.90
9824;DHT22;4951;50.778;7.196;2022-07-29T12:40:44;27.90;99.90
9824;DHT22;4951;50.778;7.196;2022-07-29T12:43:13;27.80;99.90
9824;DHT22;4951;50.778;7.196;2022-07-29T12:45:42;27.80;99.90
9824;DHT22;4951;50.778;7.196;2022-07-29T12:48:10;27.90;99.90
9824;DHT22;4951;50.778;7.196;2022-07-29T12:50:52;28.00;99.90
9824;DHT22;4951;50.778;7.196;2022-07-29T12:53:19;28.20;99.90
9824;DHT22;4951;50.778;7.196;2022-07-29T12:55:50;28.20;99.90
9824;DHT22;4951;50.778;7.196;2022-07-29T12:58:37;28.20;99.90
9824;DHT22;4951;50.778;7.196;2022-07-29T13:01:08;28.10;99.90
9824;DHT22;4951;50.778;7.196;2022-07-29T13:03:44;28.00;99.90
9824;DHT22;4951;50.778;7.196;2022-07-29T13:06:32;28.10;99.90
9824;DHT22;4951;50.778;7.196;2022-07-29T13:09:08;28.20;99.90
9824;DHT22;4951;50.778;7.196;2022-07-29T13:11:39;28.50;99.90
9824;DHT22;4951;50.778;7.196;2022-07-29T13:14:07;28.80;99.90
9824;DHT22;4951;50.778;7.196;2022-07-29T13:16:36;28.90;99.90
9824;DHT22;4951;50.778;7.196;2022-07-29T13:19:09;29.00;99.90
9824;DHT22;4951;50.778;7.196;2022-07-29T13:21:37;28.90;99.90
9824;DHT22;4951;50.778;7.196;2022-07-29T13:24:06;28.90;99.90
9824;DHT22;4951;50.778;7.196;2022-07-29T13:26:33;28.90;99.90
9824;DHT22;4951;50.778;7.196;2022-07-29T13:29:02;28.70;99.90
9824;DHT22;4951;50.778;7.196;2022-07-29T13:31:30;28.60;99.90
9824;DHT22;4951;50.778;7.196;2022-07-29T13:33:57;28.60;99.90
9824;DHT22;4951;50.778;7.196;2022-07-29T13:36:24;28.60;99.90
9824;DHT22;4951;50.778;7.196;2022-07-29T13:38:52;28.60;99.90
9824;DHT22;4951;50.778;7.196;2022-07-29T13:41:19;28.70;99.90
9824;DHT22;4951;50.778;7.196;2022-07-29T13:43:46;28.80;99.90
9824;DHT22;4951;50.778;7.196;2022-07-29T13:46:15;29.00;99.90
9824;DHT22;4951;50.778;7.196;2022-07-29T13:48:42;29.30;99.90
9824;DHT22;4951;50.778;7.196;2022-07-29T13:51:09;29.60;99.90
9824;DHT22;4951;50.778;7.196;2022-07-29T13:53:36;29.80;99.90
9824;DHT22;4951;50.778;7.196;2022-07-29T13:56:04;29.90;99.90
9824;DHT22;4951;50.778;7.196;2022-07-29T13:58:33;30.10;99.90
9824;DHT22;4951;50.778;7.196;2022-07-29T14:01:00;30.40;99.90
9824;DHT22;4951;50.778;7.196;2022-07-29T14:03:30;31.00;99.90
9824;DHT22;4951;50.778;7.196;2022-07-29T14:05:57;31.50;99.90
9824;DHT22;4951;50.778;7.196;2022-07-29T14:08:25;31.70;99.90
9824;DHT22;4951;50.778;7.196;2022-07-29T14:10:53;31.70;99.90
9824;DHT22;4951;50.778;7.196;2022-07-29T14:13:20;31.80;99.90
9824;DHT22;4951;50.778;7.196;2022-07-29T14:15:49;32.10;99.90
9824;DHT22;4951;50.778;7.196;2022-07-29T14:18:16;32.10;99.90
9824;DHT22;4951;50.778;7.196;2022-07-29T14:20:45;32.20;99.90
9824;DHT22;4951;50.778;7.196;2022-07-29T14:23:13;32.30;99.90
9824;DHT22;4951;50.778;7.196;2022-07-29T14:25:40;32.40;99.90
9824;DHT22;4951;50.778;7.196;2022-07-29T14:28:07;32.60;99.90
9824;DHT22;4951;50.778;7.196;2022-07-29T14:30:34;32.70;99.90
9824;DHT22;4951;50.778;7.196;2022-07-29T14:33:01;32.70;99.90
9824;DHT22;4951;50.778;7.196;2022-07-29T14:35:28;32.70;99.90
9824;DHT22;4951;50.778;7.196;2022-07-29T14:37:57;32.40;99.90
9824;DHT22;4951;50.778;7.196;2022-07-29T14:40:27;32.40;99.90
9824;DHT22;4951;50.778;7.196;2022-07-29T14:42:54;32.20;99.90
9824;DHT22;4951;50.778;7.196;2022-07-29T14:45:21;31.90;99.90
9824;DHT22;4951;50.778;7.196;2022-07-29T14:47:48;31.70;99.90
9824;DHT22;4951;50.778;7.196;2022-07-29T14:50:16;31.50;99.90
9824;DHT22;4951;50.778;7.196;2022-07-29T14:52:44;31.40;99.90
9824;DHT22;4951;50.778;7.196;2022-07-29T14:55:12;31.50;99.90
9824;DHT22;4951;50.778;7.196;2022-07-29T14:57:39;31.70;99.90
9824;DHT22;4951;50.778;7.196;2022-07-29T15:00:07;32.00;99.90
9824;DHT22;4951;50.778;7.196;2022-07-29T15:02:36;32.00;99.90
9824;DHT22;4951;50.778;7.196;2022-07-29T15:05:03;32.00;99.90
9824;DHT22;4951;50.778;7.196;2022-07-29T15:07:33;32.00;99.90
9824;DHT22;4951;50.778;7.196;2022-07-29T15:10:00;32.10;99.90
9824;DHT22;4951;50.778;7.196;2022-07-29T15:12:29;32.30;99.90
9824;DHT22;4951;50.778;7.196;2022-07-29T15:14:56;32.70;99.90
9824;DHT22;4951;50.778;7.196;2022-07-29T15:17:23;33.20;99.90
9824;DHT22;4951;50.778;7.196;2022-07-29T15:19:50;33.40;99.90
9824;DHT22;4951;50.778;7.196;2022-07-29T15:22:17;33.40;99.90
9824;DHT22;4951;50.778;7.196;2022-07-29T15:24:44;33.40;99.90
9824;DHT22;4951;50.778;7.196;2022-07-29T15:27:11;33.50;99.90
9824;DHT22;4951;50.778;7.196;2022-07-29T15:29:41;33.30;99.90
9824;DHT22;4951;50.778;7.196;2022-07-29T15:32:09;33.00;99.90
9824;DHT22;4951;50.778;7.196;2022-07-29T15:34:37;33.00;99.90
9824;DHT22;4951;50.778;7.196;2022-07-29T15:37:05;32.80;99.90
9824;DHT22;4951;50.778;7.196;2022-07-29T15:39:32;32.70;99.90
9824;DHT22;4951;50.778;7.196;2022-07-29T15:42:02;32.50;99.90
9824;DHT22;4951;50.778;7.196;2022-07-29T15:44:30;32.60;99.90
9824;DHT22;4951;50.778;7.196;2022-07-29T15:46:58;32.80;99.90
9824;DHT22;4951;50.778;7.196;2022-07-29T15:49:33;32.90;99.90
9824;DHT22;4951;50.778;7.196;2022-07-29T15:52:02;33.10;99.90
9824;DHT22;4951;50.778;7.196;2022-07-29T15:54:32;33.10;99.90
9824;DHT22;4951;50.778;7.196;2022-07-29T15:56:59;32.90;99.90
9824;DHT22;4951;50.778;7.196;2022-07-29T15:59:27;32.50;99.90
9824;DHT22;4951;50.778;7.196;2022-07-29T16:01:54;32.30;99.90
9824;DHT22;4951;50.778;7.196;2022-07-29T16:04:23;32.30;99.90
9824;DHT22;4951;50.778;7.196;2022-07-29T16:06:50;32.50;99.90
9824;DHT22;4951;50.778;7.196;2022-07-29T16:09:17;32.60;99.90
9824;DHT22;4951;50.778;7.196;2022-07-29T16:11:45;32.60;99.90
9824;DHT22;4951;50.778;7.196;2022-07-29T16:14:18;32.30;99.90
9824;DHT22;4951;50.778;7.196;2022-07-29T16:16:45;31.90;99.90
9824;DHT22;4951;50.778;7.196;2022-07-29T16:19:13;31.60;99.90
9824;DHT22;4951;50.778;7.196;2022-07-29T16:21:54;31.00;99.90
9824;DHT22;4951;50.778;7.196;2022-07-29T16:24:21;30.30;99.90
9824;DHT22;4951;50.778;7.196;2022-07-29T16:26:48;29.70;99.90
9824;DHT22;4951;50.778;7.196;2022-07-29T16:29:16;29.20;99.90
9824;DHT22;4951;50.778;7.196;2022-07-29T16:31:44;28.70;99.90